Back to Top

Language: 

My Weather Underground Personal Weather Station Historical Data with Graphs...

Delerius Weather Station Historical Data
Daily Summary for June 22, 2017 Units:  Metric    English   Both
« Previous Day
Next Day »
Daily Weekly Monthly Yearly Custom
  High: Low: Average:
Temperature: 21.9 °C 14.8 °C 18.4 °C
Dew Point: 20 °C 10.6 °C 14.3 °C
Humidity: 93 % 60 % 78 %
Wind Speed: 25.7 km/h 0 km/h 14.3 km/h
Wind Gust: 49.9 km/h - -
Wind:- - West
Pressure: 1012.1 hPa 1006.7 hPa -
Precipitation: 0 mm    
Historical Graphs
 
 
Tabular Data for June 22, 2017
Time Temperature Dew Point Pressure Wind Wind Speed Wind Gust Humidity Rainfall Rate (Hourly) solar Conditions
00:02 21.4 °C 19.9 °C 1008 hPa East 1.6 km/h 6.4 km/h 91 % 0 mm 0 W/m2
00:07 21.3 °C 19.8 °C 1007.7 hPa Calm   1.6 km/h 91 % 0 mm 0 W/m2
00:12 21.2 °C 19.7 °C 1007.7 hPa Calm     91 % 0 mm 0 W/m2
00:17 21.1 °C 19.6 °C 1007.7 hPa Calm     91 % 0 mm 0 W/m2
00:22 21 °C 19.5 °C 1007.7 hPa Calm     91 % 0 mm 0 W/m2
00:27 20.9 °C 19.6 °C 1007.7 hPa Calm   1.6 km/h 92 % 0 mm 0 W/m2
00:32 20.8 °C 19.4 °C 1007.7 hPa Calm   1.6 km/h 92 % 0 mm 0 W/m2
00:37 20.8 °C 19.6 °C 1007.7 hPa Calm   3.2 km/h 93 % 0 mm 0 W/m2
00:42 20.8 °C 19.6 °C 1007.7 hPa Calm   3.2 km/h 93 % 0 mm 0 W/m2
00:47 20.8 °C 19.6 °C 1007.7 hPa Calm   1.6 km/h 93 % 0 mm 0 W/m2
00:52 20.7 °C 19.5 °C 1007.3 hPa Calm     93 % 0 mm 0 W/m2
00:57 20.7 °C 19.5 °C 1007.3 hPa Calm   3.2 km/h 93 % 0 mm 0 W/m2
01:02 20.7 °C 19.5 °C 1007.3 hPa Calm   3.2 km/h 93 % 0 mm 0 W/m2
01:07 20.7 °C 19.5 °C 1007.3 hPa SSW 1.6 km/h 11.3 km/h 93 % 0 mm 0 W/m2
01:12 20.9 °C 19.7 °C 1007.3 hPa SW 4.8 km/h 16.1 km/h 93 % 0 mm 0 W/m2
01:17 21.2 °C 20 °C 1007.3 hPa SW 8 km/h 16.1 km/h 93 % 0 mm 0 W/m2
01:22 21.5 °C 19.9 °C 1007.3 hPa SW 11.3 km/h 17.7 km/h 91 % 0 mm 0 W/m2
01:27 21.7 °C 20 °C 1007 hPa SW 12.9 km/h 20.9 km/h 90 % 0 mm 0 W/m2
01:32 21.9 °C 20 °C 1007 hPa SW 12.9 km/h 20.9 km/h 89 % 0 mm 0 W/m2
01:37 21.9 °C 19.8 °C 1007 hPa SW 11.3 km/h 17.7 km/h 88 % 0 mm 0 W/m2
01:42 21.9 °C 19.8 °C 1007 hPa SW 9.7 km/h 16.1 km/h 88 % 0 mm 0 W/m2
01:47 21.9 °C 19.6 °C 1007 hPa SW 11.3 km/h 16.1 km/h 87 % 0 mm 0 W/m2
01:52 21.8 °C 19.6 °C 1007 hPa SW 11.3 km/h 16.1 km/h 87 % 0 mm 0 W/m2
01:57 21.7 °C 19.3 °C 1007 hPa SW 9.7 km/h 14.5 km/h 86 % 0 mm 0 W/m2
02:02 21.7 °C 19.1 °C 1006.7 hPa SW 9.7 km/h 17.7 km/h 85 % 0 mm 0 W/m2
02:08 21.6 °C 18.8 °C 1007 hPa WSW 11.3 km/h 19.3 km/h 84 % 0 mm 0 W/m2
02:13 21.5 °C 18.5 °C 1007 hPa WSW 11.3 km/h 19.3 km/h 83 % 0 mm 0 W/m2
02:18 21.5 °C 18.3 °C 1006.7 hPa SW 11.3 km/h 19.3 km/h 82 % 0 mm 0 W/m2
02:23 21.4 °C 18 °C 1006.7 hPa SW 11.3 km/h 17.7 km/h 81 % 0 mm 0 W/m2
02:28 21.3 °C 17.9 °C 1006.7 hPa WSW 6.4 km/h 17.7 km/h 81 % 0 mm 0 W/m2
02:33 21.1 °C 17.7 °C 1006.7 hPa NW 4.8 km/h 9.7 km/h 81 % 0 mm 0 W/m2
02:38 20.8 °C 17.2 °C 1006.7 hPa NW 4.8 km/h 9.7 km/h 80 % 0 mm 0 W/m2
02:43 20.6 °C 16.6 °C 1006.7 hPa NW 6.4 km/h 12.9 km/h 78 % 0 mm 0 W/m2
02:48 20.4 °C 16.4 °C 1007 hPa NW 8 km/h 12.9 km/h 78 % 0 mm 0 W/m2
02:53 20.3 °C 16.6 °C 1007 hPa NW 8 km/h 14.5 km/h 79 % 0 mm 0 W/m2
02:58 20.2 °C 16.6 °C 1006.7 hPa WNW 9.7 km/h 14.5 km/h 80 % 0 mm 0 W/m2
03:03 20.1 °C 16.6 °C 1006.7 hPa WNW 9.7 km/h 14.5 km/h 80 % 0 mm 0 W/m2
03:08 20 °C 16.6 °C 1006.7 hPa WNW 11.3 km/h 19.3 km/h 81 % 0 mm 0 W/m2
03:13 20 °C 16.8 °C 1006.7 hPa WNW 12.9 km/h 22.5 km/h 82 % 0 mm 0 W/m2
03:18 20.1 °C 16.9 °C 1006.7 hPa West 14.5 km/h 24.1 km/h 82 % 0 mm 0 W/m2
03:23 20.2 °C 17 °C 1006.7 hPa West 14.5 km/h 24.1 km/h 82 % 0 mm 0 W/m2
03:28 20.3 °C 17.1 °C 1006.7 hPa West 16.1 km/h 29 km/h 82 % 0 mm 0 W/m2
03:34 20.3 °C 17.1 °C 1006.7 hPa West 14.5 km/h 29 km/h 82 % 0 mm 0 W/m2
03:39 20.3 °C 17.1 °C 1007 hPa WSW 12.9 km/h 22.5 km/h 82 % 0 mm 0 W/m2
03:44 20.2 °C 17.2 °C 1006.7 hPa West 9.7 km/h 17.7 km/h 83 % 0 mm 0 W/m2
03:49 20.1 °C 17.1 °C 1006.7 hPa West 9.7 km/h 17.7 km/h 83 % 0 mm 0 W/m2
03:54 19.9 °C 16.9 °C 1007 hPa WNW 9.7 km/h 17.7 km/h 83 % 0 mm 0 W/m2
03:59 19.7 °C 16.9 °C 1007 hPa WNW 9.7 km/h 17.7 km/h 84 % 0 mm 0 W/m2
04:04 19.6 °C 16.8 °C 1007 hPa West 9.7 km/h 19.3 km/h 84 % 0 mm 0 W/m2
04:09 19.6 °C 17 °C 1007 hPa West 11.3 km/h 19.3 km/h 85 % 0 mm 0 W/m2
04:14 19.5 °C 16.9 °C 1006.7 hPa West 12.9 km/h 24.1 km/h 85 % 0 mm 0 W/m2
04:19 19.5 °C 16.9 °C 1007 hPa West 12.9 km/h 24.1 km/h 85 % 0 mm 0 W/m2
04:24 19.4 °C 16.8 °C 1007 hPa West 12.9 km/h 19.3 km/h 85 % 0 mm 0 W/m2
04:29 19.4 °C 16.8 °C 1007 hPa WNW 11.3 km/h 19.3 km/h 85 % 0 mm 0 W/m2
04:34 19.3 °C 16.9 °C 1007 hPa WNW 12.9 km/h 20.9 km/h 86 % 0 mm 0 W/m2
04:39 19.3 °C 16.9 °C 1006.7 hPa West 12.9 km/h 22.5 km/h 86 % 0 mm 0 W/m2
04:44 19.3 °C 16.9 °C 1006.7 hPa WNW 12.9 km/h 22.5 km/h 86 % 0 mm 5 W/m2
04:49 19.2 °C 17 °C 1007 hPa WNW 12.9 km/h 20.9 km/h 87 % 0 mm 7 W/m2
04:54 19.2 °C 17 °C 1007 hPa WNW 12.9 km/h 22.5 km/h 87 % 0 mm 7 W/m2
04:59 19.2 °C 17 °C 1007 hPa WNW 14.5 km/h 25.7 km/h 87 % 0 mm 11 W/m2
05:04 18.9 °C 16.7 °C 1007 hPa WNW 14.5 km/h 29 km/h 87 % 0 mm 14 W/m2
05:09 18.7 °C 16.5 °C 1007.3 hPa WNW 14.5 km/h 29 km/h 87 % 0 mm 16 W/m2
05:14 18.6 °C 16.6 °C 1007.3 hPa WNW 12.9 km/h 29 km/h 88 % 0 mm 18 W/m2
05:15 18.5 °C 16.5 °C 1007.3 hPa WNW 12.9 km/h 29 km/h 88 % 0 mm 18 W/m2
05:20 18.4 °C 16.4 °C 1007.3 hPa WNW 11.3 km/h 20.9 km/h 88 % 0 mm 12 W/m2
05:25 18.3 °C 16.3 °C 1007.3 hPa WNW 8 km/h 19.3 km/h 88 % 0 mm 18 W/m2
05:30 18.2 °C 16.2 °C 1007.3 hPa WNW 3.2 km/h 11.3 km/h 88 % 0 mm 21 W/m2
05:35 18.1 °C 16.1 °C 1007.3 hPa NW 1.6 km/h 9.7 km/h 88 % 0 mm 11 W/m2
05:40 18 °C 16 °C 1007.7 hPa NW 3.2 km/h 11.3 km/h 88 % 0 mm 11 W/m2
05:45 17.9 °C 15.7 °C 1007.7 hPa NW 6.4 km/h 16.1 km/h 87 % 0 mm 9 W/m2
05:50 17.8 °C 15.6 °C 1007.7 hPa NW 9.7 km/h 19.3 km/h 87 % 0 mm 11 W/m2
05:55 17.7 °C 15.5 °C 1007.3 hPa WNW 9.7 km/h 19.3 km/h 87 % 0 mm 14 W/m2
06:00 17.7 °C 15.5 °C 1007.7 hPa WNW 8 km/h 16.1 km/h 87 % 0 mm 14 W/m2
06:05 17.7 °C 15.5 °C 1007.7 hPa WNW 9.7 km/h 16.1 km/h 87 % 0 mm 28 W/m2
06:10 17.6 °C 15.4 °C 1007.7 hPa NW 9.7 km/h 16.1 km/h 87 % 0 mm 60 W/m2
06:15 17.7 °C 15.5 °C 1007.7 hPa WNW 9.7 km/h 16.1 km/h 87 % 0 mm 47 W/m2
06:20 17.7 °C 15.5 °C 1007.7 hPa WNW 11.3 km/h 17.7 km/h 87 % 0 mm 81 W/m2
06:25 17.6 °C 15.4 °C 1007.7 hPa WNW 12.9 km/h 22.5 km/h 87 % 0 mm 88 W/m2
06:30 17.6 °C 15.2 °C 1007.3 hPa WNW 14.5 km/h 22.5 km/h 86 % 0 mm 86 W/m2
06:35 17.6 °C 15.4 °C 1007.3 hPa West 14.5 km/h 20.9 km/h 87 % 0 mm 81 W/m2
06:40 17.6 °C 15.2 °C 1007.3 hPa West 16.1 km/h 25.7 km/h 86 % 0 mm 84 W/m2
06:55 17.7 °C 15.3 °C 1007.3 hPa WNW 12.9 km/h 24.1 km/h 86 % 0 mm 107 W/m2
07:00 17.7 °C 15.3 °C 1007.7 hPa WNW 11.3 km/h 24.1 km/h 86 % 0 mm 86 W/m2
07:05 17.7 °C 15.3 °C 1007.7 hPa West 9.7 km/h 16.1 km/h 86 % 0 mm 104 W/m2
07:10 17.7 °C 15.2 °C 1007.7 hPa West 9.7 km/h 14.5 km/h 85 % 0 mm 142 W/m2
07:15 17.7 °C 15.2 °C 1007.7 hPa WSW 9.7 km/h 16.1 km/h 85 % 0 mm 114 W/m2
07:20 17.8 °C 15.2 °C 1007.7 hPa WSW 8 km/h 16.1 km/h 85 % 0 mm 105 W/m2
07:25 17.8 °C 15.2 °C 1007.7 hPa WSW 6.4 km/h 14.5 km/h 85 % 0 mm 88 W/m2
07:30 17.9 °C 15.3 °C 1007.7 hPa WSW 8 km/h 14.5 km/h 85 % 0 mm 127 W/m2
07:35 17.9 °C 15.3 °C 1007.7 hPa WSW 8 km/h 14.5 km/h 85 % 0 mm 107 W/m2
07:40 18 °C 15.3 °C 1007.7 hPa West 8 km/h 17.7 km/h 84 % 0 mm 90 W/m2
07:45 18 °C 15.3 °C 1007.7 hPa West 9.7 km/h 17.7 km/h 84 % 0 mm 67 W/m2
07:50 17.9 °C 15.2 °C 1007.7 hPa WSW 9.7 km/h 17.7 km/h 84 % 0 mm 69 W/m2
07:55 17.8 °C 15.2 °C 1007.7 hPa WSW 11.3 km/h 19.3 km/h 85 % 0 mm 216 W/m2
08:00 17.9 °C 15.3 °C 1007.3 hPa WSW 12.9 km/h 29 km/h 85 % 0 mm 285 W/m2
08:05 17.9 °C 15.2 °C 1007.3 hPa WSW 14.5 km/h 29 km/h 84 % 0 mm 265 W/m2
08:10 18 °C 15.3 °C 1007.3 hPa WSW 14.5 km/h 22.5 km/h 84 % 0 mm 260 W/m2
08:15 18.2 °C 15.4 °C 1007.3 hPa WSW 14.5 km/h 22.5 km/h 84 % 0 mm 302 W/m2
08:20 18.3 °C 15.4 °C 1007.3 hPa West 14.5 km/h 25.7 km/h 83 % 0 mm 171 W/m2
08:25 18.4 °C 15.4 °C 1007.3 hPa West 12.9 km/h 25.7 km/h 83 % 0 mm 176 W/m2
08:26 18.4 °C 15.4 °C 1007.3 hPa West 12.9 km/h 25.7 km/h 83 % 0 mm 176 W/m2
08:31 18.4 °C 15.4 °C 1007.7 hPa West 12.9 km/h 22.5 km/h 83 % 0 mm 153 W/m2
08:32 18.4 °C 15.4 °C 1007.7 hPa West 12.9 km/h 22.5 km/h 83 % 0 mm 153 W/m2
08:37 18.4 °C 15.4 °C 1007.7 hPa West 16.1 km/h 25.7 km/h 83 % 0 mm 156 W/m2
08:42 18.3 °C 15.2 °C 1007.7 hPa West 14.5 km/h 25.7 km/h 82 % 0 mm 165 W/m2
08:47 18.3 °C 15.2 °C 1007.7 hPa West 12.9 km/h 24.1 km/h 82 % 0 mm 276 W/m2
08:52 18.4 °C 15.3 °C 1007.7 hPa West 11.3 km/h 17.7 km/h 82 % 0 mm 503 W/m2
08:57 18.6 °C 15.4 °C 1007.7 hPa WSW 12.9 km/h 20.9 km/h 82 % 0 mm 290 W/m2
09:02 18.6 °C 15.3 °C 1007.7 hPa West 16.1 km/h 35.4 km/h 81 % 0 mm 121 W/m2
09:07 18.4 °C 14.9 °C 1007.7 hPa West 20.9 km/h 35.4 km/h 80 % 0 mm 167 W/m2
09:12 18.4 °C 15.1 °C 1007.3 hPa West 19.3 km/h 32.2 km/h 81 % 0 mm 287 W/m2
09:17 18.4 °C 15.1 °C 1007.3 hPa WSW 17.7 km/h 30.6 km/h 81 % 0 mm 403 W/m2
09:22 18.7 °C 15.4 °C 1007.3 hPa West 14.5 km/h 30.6 km/h 81 % 0 mm 554 W/m2
09:27 19.2 °C 15.8 °C 1007.3 hPa West 12.9 km/h 20.9 km/h 81 % 0 mm 592 W/m2
09:32 19.8 °C 16.1 °C 1007 hPa WNW 12.9 km/h 29 km/h 79 % 0 mm 612 W/m2
09:37 20.3 °C 16.3 °C 1007.3 hPa WNW 12.9 km/h 29 km/h 78 % 0 mm 647 W/m2
09:42 20.6 °C 16.2 °C 1007.7 hPa WNW 11.3 km/h 20.9 km/h 76 % 0 mm 269 W/m2
09:47 20.6 °C 16 °C 1007.7 hPa West 14.5 km/h 24.1 km/h 75 % 0 mm 100 W/m2
09:52 20.5 °C 15.9 °C 1007.7 hPa West 16.1 km/h 29 km/h 75 % 0 mm 141 W/m2
09:57 20.2 °C 15.6 °C 1007.7 hPa WNW 17.7 km/h 32.2 km/h 75 % 0 mm 223 W/m2
10:02 19.9 °C 15.6 °C 1007.7 hPa WNW 17.7 km/h 32.2 km/h 76 % 0 mm 227 W/m2
10:07 19.8 °C 15.7 °C 1007.7 hPa WNW 16.1 km/h 29 km/h 77 % 0 mm 195 W/m2
10:12 19.7 °C 15.6 °C 1007.7 hPa WNW 12.9 km/h 24.1 km/h 77 % 0 mm 258 W/m2
10:17 19.6 °C 15.4 °C 1007.7 hPa West 12.9 km/h 24.1 km/h 77 % 0 mm 155 W/m2
10:22 19.6 °C 15.7 °C 1008 hPa West 11.3 km/h 22.5 km/h 78 % 0 mm 176 W/m2
10:27 19.6 °C 15.7 °C 1007.7 hPa WNW 9.7 km/h 19.3 km/h 78 % 0 mm 128 W/m2
10:32 19.6 °C 15.7 °C 1008 hPa WNW 12.9 km/h 24.1 km/h 78 % 0 mm 105 W/m2
10:37 19.4 °C 15.4 °C 1008 hPa West 14.5 km/h 24.1 km/h 78 % 0 mm 107 W/m2
10:42 19.1 °C 15.4 °C 1008 hPa West 14.5 km/h 25.7 km/h 79 % 0 mm 76 W/m2
10:47 18.9 °C 15.4 °C 1008.4 hPa West 14.5 km/h 30.6 km/h 80 % 0 mm 54 W/m2
10:52 18.7 °C 15.2 °C 1008.4 hPa WNW 14.5 km/h 30.6 km/h 80 % 0 mm 53 W/m2
10:57 18.6 °C 15.3 °C 1008.4 hPa WNW 14.5 km/h 35.4 km/h 81 % 0 mm 63 W/m2
11:02 18.3 °C 15 °C 1008.4 hPa WNW 17.7 km/h 37 km/h 81 % 0 mm 62 W/m2
11:07 18 °C 14.9 °C 1008.4 hPa WNW 22.5 km/h 37 km/h 82 % 0 mm 65 W/m2
11:13 17.7 °C 14.6 °C 1008.4 hPa WNW 19.3 km/h 37 km/h 82 % 0 mm 72 W/m2
11:18 17.6 °C 14.7 °C 1008.7 hPa West 17.7 km/h 29 km/h 83 % 0 mm 53 W/m2
11:23 17.4 °C 14.5 °C 1008.4 hPa West 16.1 km/h 29 km/h 83 % 0 mm 67 W/m2
11:28 17.4 °C 14.7 °C 1008.4 hPa West 14.5 km/h 24.1 km/h 84 % 0 mm 185 W/m2
11:33 17.6 °C 14.9 °C 1008.4 hPa WNW 16.1 km/h 29 km/h 84 % 0 mm 301 W/m2
11:38 17.7 °C 14.9 °C 1008.4 hPa WNW 16.1 km/h 29 km/h 84 % 0 mm 480 W/m2
11:43 18.1 °C 15.2 °C 1008.4 hPa WNW 14.5 km/h 24.1 km/h 83 % 0 mm 202 W/m2
11:48 18.3 °C 15.2 °C 1008.4 hPa WNW 14.5 km/h 22.5 km/h 82 % 0 mm 153 W/m2
11:53 18.3 °C 15 °C 1008.4 hPa WNW 16.1 km/h 29 km/h 81 % 0 mm 93 W/m2
11:58 18.1 °C 14.6 °C 1008.7 hPa WNW 19.3 km/h 35.4 km/h 80 % 0 mm 86 W/m2
12:03 17.9 °C 14.4 °C 1008.4 hPa West 19.3 km/h 35.4 km/h 80 % 0 mm 65 W/m2
12:08 17.8 °C 14.3 °C 1008.7 hPa West 19.3 km/h 35.4 km/h 80 % 0 mm 67 W/m2
12:13 17.8 °C 14.3 °C 1008.4 hPa WNW 16.1 km/h 32.2 km/h 80 % 0 mm 72 W/m2
12:18 17.7 °C 14.2 °C 1008.4 hPa WNW 16.1 km/h 30.6 km/h 80 % 0 mm 72 W/m2
12:23 17.6 °C 14.3 °C 1008.4 hPa WNW 17.7 km/h 32.2 km/h 81 % 0 mm 95 W/m2
12:28 17.6 °C 14.3 °C 1008.4 hPa WNW 16.1 km/h 32.2 km/h 81 % 0 mm 188 W/m2
12:33 17.6 °C 14.3 °C 1008.7 hPa WNW 16.1 km/h 32.2 km/h 81 % 0 mm 192 W/m2
12:35 17.6 °C 14.3 °C 1008.7 hPa WNW 17.7 km/h 32.2 km/h 81 % 0 mm 195 W/m2
12:40 17.7 °C 14.2 °C 1008.7 hPa WNW 17.7 km/h 32.2 km/h 80 % 0 mm 213 W/m2
12:44 17.8 °C 14.1 °C 1008.7 hPa WNW 20.9 km/h 33.8 km/h 79 % 0 mm 195 W/m2
12:49 17.8 °C 13.9 °C 1008.7 hPa WNW 22.5 km/h 33.8 km/h 78 % 0 mm 192 W/m2
12:54 17.8 °C 14.1 °C 1008.7 hPa WNW 19.3 km/h 33.8 km/h 79 % 0 mm 144 W/m2
12:59 17.8 °C 13.9 °C 1008.7 hPa WNW 17.7 km/h 32.2 km/h 78 % 0 mm 132 W/m2
13:04 17.7 °C 13.6 °C 1009 hPa WNW 20.9 km/h 38.6 km/h 77 % 0 mm 116 W/m2
13:09 17.5 °C 13.4 °C 1009 hPa WNW 22.5 km/h 40.2 km/h 77 % 0 mm 156 W/m2
13:14 17.5 °C 13.6 °C 1009 hPa WNW 20.9 km/h 40.2 km/h 78 % 0 mm 137 W/m2
13:19 17.4 °C 13.5 °C 1009 hPa WNW 20.9 km/h 33.8 km/h 78 % 0 mm 134 W/m2
13:24 17.3 °C 13.2 °C 1009.4 hPa WNW 24.1 km/h 37 km/h 77 % 0 mm 141 W/m2
13:29 17.2 °C 13.5 °C 1009.4 hPa WNW 20.9 km/h 37 km/h 79 % 0 mm 225 W/m2
13:34 17.3 °C 13.4 °C 1009.4 hPa WNW 17.7 km/h 33.8 km/h 78 % 0 mm 172 W/m2
13:39 17.4 °C 13.5 °C 1009.4 hPa WNW 20.9 km/h 38.6 km/h 78 % 0 mm 116 W/m2
13:44 17.4 °C 13.5 °C 1009.4 hPa WNW 20.9 km/h 40.2 km/h 78 % 0 mm 128 W/m2
13:49 17.5 °C 13.6 °C 1009.4 hPa WNW 19.3 km/h 40.2 km/h 78 % 0 mm 134 W/m2
13:54 17.5 °C 13.6 °C 1009.4 hPa WNW 17.7 km/h 37 km/h 78 % 0 mm 178 W/m2
13:59 17.6 °C 13.5 °C 1009.4 hPa WNW 17.7 km/h 37 km/h 77 % 0 mm 162 W/m2
14:04 17.7 °C 13.6 °C 1009.4 hPa WNW 19.3 km/h 38.6 km/h 77 % 0 mm 141 W/m2
14:09 17.7 °C 13.6 °C 1009.4 hPa WNW 17.7 km/h 38.6 km/h 77 % 0 mm 132 W/m2
14:14 17.6 °C 13.3 °C 1009.4 hPa WNW 19.3 km/h 48.3 km/h 76 % 0 mm 139 W/m2
14:19 17.5 °C 13.2 °C 1009.4 hPa WNW 19.3 km/h 48.3 km/h 76 % 0 mm 237 W/m2
14:24 17.7 °C 13.4 °C 1009.4 hPa WNW 20.9 km/h 45.1 km/h 76 % 0 mm 436 W/m2
14:29 17.9 °C 13.2 °C 1009.7 hPa WNW 24.1 km/h 45.1 km/h 74 % 0 mm 390 W/m2
14:34 18.1 °C 13.4 °C 1009.7 hPa West 22.5 km/h 37 km/h 74 % 0 mm 278 W/m2
14:39 18.3 °C 13.4 °C 1009.7 hPa WNW 20.9 km/h 37 km/h 73 % 0 mm 452 W/m2
14:44 18.6 °C 13.7 °C 1009.7 hPa WNW 17.7 km/h 35.4 km/h 73 % 0 mm 309 W/m2
14:49 18.7 °C 13.1 °C 1009.7 hPa WNW 19.3 km/h 41.8 km/h 70 % 0 mm 436 W/m2
14:54 18.7 °C 13.1 °C 1009.7 hPa WNW 25.7 km/h 41.8 km/h 70 % 0 mm 288 W/m2
14:59 18.5 °C 12.9 °C 1009.7 hPa West 24.1 km/h 41.8 km/h 70 % 0 mm 142 W/m2
15:04 18.3 °C 12.9 °C 1009.7 hPa WNW 20.9 km/h 37 km/h 71 % 0 mm 250 W/m2
15:09 18.4 °C 13.1 °C 1009.7 hPa WNW 17.7 km/h 30.6 km/h 71 % 0 mm 216 W/m2
15:14 18.4 °C 12.6 °C 1009.7 hPa WNW 19.3 km/h 37 km/h 69 % 0 mm 299 W/m2
15:19 18.4 °C 12.4 °C 1009.7 hPa WNW 22.5 km/h 41.8 km/h 68 % 0 mm 327 W/m2
15:24 18.4 °C 12.6 °C 1009.7 hPa West 25.7 km/h 45.1 km/h 69 % 0 mm 304 W/m2
15:30 18.6 °C 12.8 °C 1009.7 hPa West 24.1 km/h 45.1 km/h 69 % 0 mm 429 W/m2
15:34 18.6 °C 12.8 °C 1009.7 hPa West 24.1 km/h 45.1 km/h 69 % 0 mm 371 W/m2
15:40 18.7 °C 12.9 °C 1009.7 hPa West 22.5 km/h 40.2 km/h 69 % 0 mm 338 W/m2
15:45 18.8 °C 12.6 °C 1010 hPa WNW 24.1 km/h 43.5 km/h 67 % 0 mm 253 W/m2
15:50 18.6 °C 12.6 °C 1010 hPa WNW 24.1 km/h 43.5 km/h 68 % 0 mm 207 W/m2
15:55 18.6 °C 12.6 °C 1010 hPa WNW 22.5 km/h 43.5 km/h 68 % 0 mm 360 W/m2
16:00 18.8 °C 12.6 °C 1010 hPa WNW 20.9 km/h 37 km/h 67 % 0 mm 439 W/m2
16:05 19.2 °C 12.7 °C 1010 hPa WNW 20.9 km/h 35.4 km/h 66 % 0 mm 439 W/m2
16:10 19.2 °C 12.2 °C 1010 hPa WNW 22.5 km/h 40.2 km/h 64 % 0 mm 376 W/m2
16:15 19.3 °C 12.6 °C 1010.4 hPa WNW 24.1 km/h 41.8 km/h 65 % 0 mm 364 W/m2
16:20 19.3 °C 12.3 °C 1010 hPa WNW 24.1 km/h 41.8 km/h 64 % 0 mm 779 W/m2
16:25 19.6 °C 12.4 °C 1010 hPa WNW 24.1 km/h 43.5 km/h 63 % 0 mm 703 W/m2
16:30 19.7 °C 12.2 °C 1010 hPa West 25.7 km/h 49.9 km/h 62 % 0 mm 701 W/m2
16:35 19.8 °C 12.3 °C 1010 hPa WNW 24.1 km/h 49.9 km/h 62 % 0 mm 687 W/m2
16:40 19.9 °C 12.4 °C 1010 hPa WNW 22.5 km/h 43.5 km/h 62 % 0 mm 684 W/m2
16:45 19.9 °C 12.2 °C 1010.4 hPa WNW 20.9 km/h 43.5 km/h 61 % 0 mm 659 W/m2
16:50 20 °C 12.2 °C 1010 hPa WNW 19.3 km/h 38.6 km/h 61 % 0 mm 624 W/m2
16:55 19.9 °C 12.2 °C 1010 hPa WNW 20.9 km/h 37 km/h 61 % 0 mm 612 W/m2
17:00 19.8 °C 12.1 °C 1010 hPa WNW 24.1 km/h 40.2 km/h 61 % 0 mm 596 W/m2
17:05 19.7 °C 12.2 °C 1010 hPa WNW 25.7 km/h 40.2 km/h 62 % 0 mm 584 W/m2
17:10 19.7 °C 11.9 °C 1010 hPa WNW 24.1 km/h 40.2 km/h 61 % 0 mm 571 W/m2
17:15 19.7 °C 12.2 °C 1010 hPa WNW 24.1 km/h 40.2 km/h 62 % 0 mm 561 W/m2
17:20 19.8 °C 12.3 °C 1010 hPa WNW 20.9 km/h 38.6 km/h 62 % 0 mm 545 W/m2
17:25 19.9 °C 12.2 °C 1010 hPa WNW 19.3 km/h 33.8 km/h 61 % 0 mm 533 W/m2
17:30 19.9 °C 12.2 °C 1010 hPa WNW 20.9 km/h 37 km/h 61 % 0 mm 526 W/m2
17:35 20 °C 12 °C 1010 hPa WNW 20.9 km/h 37 km/h 60 % 0 mm 517 W/m2
17:40 20.1 °C 12.3 °C 1010 hPa WNW 17.7 km/h 35.4 km/h 61 % 0 mm 483 W/m2
17:45 20.1 °C 12.1 °C 1010 hPa WNW 17.7 km/h 33.8 km/h 60 % 0 mm 492 W/m2
17:50 20 °C 12 °C 1010 hPa WNW 19.3 km/h 38.6 km/h 60 % 0 mm 480 W/m2
17:55 19.8 °C 11.8 °C 1010 hPa West 20.9 km/h 38.6 km/h 60 % 0 mm 424 W/m2
18:00 19.4 °C 11.7 °C 1010.4 hPa West 20.9 km/h 35.4 km/h 61 % 0 mm 169 W/m2
18:02 19.3 °C 11.6 °C 1010.4 hPa West 19.3 km/h 35.4 km/h 61 % 0 mm 499 W/m2
18:07 19.3 °C 11.6 °C 1010.4 hPa West 17.7 km/h 33.8 km/h 61 % 0 mm 357 W/m2
18:12 19.2 °C 11.7 °C 1010.4 hPa WNW 19.3 km/h 38.6 km/h 62 % 0 mm 142 W/m2
18:17 18.9 °C 11.7 °C 1010.4 hPa WNW 20.9 km/h 38.6 km/h 63 % 0 mm 146 W/m2
18:22 18.7 °C 11.5 °C 1010.4 hPa WNW 19.3 km/h 35.4 km/h 63 % 0 mm 185 W/m2
18:27 18.6 °C 11.7 °C 1010.4 hPa WNW 22.5 km/h 38.6 km/h 64 % 0 mm 348 W/m2
18:32 18.8 °C 11.8 °C 1010.4 hPa WNW 22.5 km/h 38.6 km/h 64 % 0 mm 385 W/m2
18:37 18.9 °C 11.7 °C 1010.7 hPa WNW 20.9 km/h 33.8 km/h 63 % 0 mm 123 W/m2
18:42 18.8 °C 11.6 °C 1010.7 hPa WNW 20.9 km/h 37 km/h 63 % 0 mm 114 W/m2
18:47 18.5 °C 11.3 °C 1010.7 hPa WNW 20.9 km/h 40.2 km/h 63 % 0 mm 118 W/m2
18:52 18 °C 11.1 °C 1010.7 hPa West 22.5 km/h 40.2 km/h 64 % 0 mm 113 W/m2
18:57 17.8 °C 11.1 °C 1011.1 hPa West 24.1 km/h 38.6 km/h 65 % 0 mm 97 W/m2
19:02 17.7 °C 11.3 °C 1011.1 hPa WNW 24.1 km/h 41.8 km/h 66 % 0 mm 70 W/m2
19:07 17.6 °C 11.4 °C 1011.1 hPa WNW 24.1 km/h 41.8 km/h 67 % 0 mm 257 W/m2
19:12 17.7 °C 11.3 °C 1011.4 hPa WNW 24.1 km/h 40.2 km/h 66 % 0 mm 234 W/m2
19:17 17.7 °C 11.3 °C 1011.1 hPa WNW 22.5 km/h 40.2 km/h 66 % 0 mm 241 W/m2
19:22 17.8 °C 11.3 °C 1011.1 hPa WNW 20.9 km/h 38.6 km/h 66 % 0 mm 220 W/m2
19:27 17.8 °C 11.1 °C 1011.1 hPa WNW 17.7 km/h 38.6 km/h 65 % 0 mm 221 W/m2
19:32 17.8 °C 11.1 °C 1011.1 hPa WNW 14.5 km/h 25.7 km/h 65 % 0 mm 190 W/m2
19:37 17.9 °C 11.2 °C 1011.1 hPa WNW 16.1 km/h 30.6 km/h 65 % 0 mm 185 W/m2
19:42 17.8 °C 10.9 °C 1011.1 hPa WNW 19.3 km/h 33.8 km/h 64 % 0 mm 156 W/m2
19:47 17.7 °C 11.1 °C 1011.1 hPa WNW 20.9 km/h 33.8 km/h 65 % 0 mm 123 W/m2
19:52 17.7 °C 11.1 °C 1011.4 hPa West 17.7 km/h 33.8 km/h 65 % 0 mm 95 W/m2
19:58 17.4 °C 10.7 °C 1011.4 hPa West 16.1 km/h 35.4 km/h 65 % 0 mm 47 W/m2
20:03 17.1 °C 10.7 °C 1011.4 hPa WNW 17.7 km/h 35.4 km/h 66 % 0 mm 39 W/m2
20:08 16.8 °C 10.6 °C 1011.4 hPa WNW 19.3 km/h 35.4 km/h 67 % 0 mm 44 W/m2
20:13 16.6 °C 10.7 °C 1011.4 hPa WNW 16.1 km/h 35.4 km/h 68 % 0 mm 40 W/m2
20:18 16.5 °C 10.8 °C 1011.4 hPa WNW 12.9 km/h 24.1 km/h 69 % 0 mm 46 W/m2
20:23 16.3 °C 10.8 °C 1011.4 hPa WNW 14.5 km/h 29 km/h 70 % 0 mm 53 W/m2
20:28 16.2 °C 10.9 °C 1011.4 hPa WNW 17.7 km/h 35.4 km/h 71 % 0 mm 56 W/m2
20:33 16.2 °C 10.9 °C 1011.4 hPa WNW 17.7 km/h 35.4 km/h 71 % 0 mm 49 W/m2
20:38 16.1 °C 11.1 °C 1011.4 hPa West 16.1 km/h 29 km/h 72 % 0 mm 33 W/m2
20:43 16.1 °C 11.3 °C 1011.4 hPa West 16.1 km/h 29 km/h 73 % 0 mm 25 W/m2
20:48 15.9 °C 11.1 °C 1011.4 hPa West 16.1 km/h 30.6 km/h 73 % 0 mm 23 W/m2
20:53 15.9 °C 11.3 °C 1011.7 hPa West 16.1 km/h 30.6 km/h 74 % 0 mm 21 W/m2
20:58 15.8 °C 11.2 °C 1011.7 hPa WNW 12.9 km/h 24.1 km/h 74 % 0 mm 19 W/m2
21:03 15.8 °C 11.4 °C 1011.7 hPa WNW 14.5 km/h 25.7 km/h 75 % 0 mm 16 W/m2
21:08 15.7 °C 11.3 °C 1011.7 hPa WNW 16.1 km/h 25.7 km/h 75 % 0 mm 12 W/m2
21:13 15.7 °C 11.3 °C 1011.7 hPa WNW 16.1 km/h 25.7 km/h 75 % 0 mm 9 W/m2
21:18 15.6 °C 11.2 °C 1011.7 hPa WNW 14.5 km/h 24.1 km/h 75 % 0 mm 7 W/m2
21:23 15.5 °C 11.1 °C 1011.7 hPa WNW 12.9 km/h 22.5 km/h 75 % 0 mm 7 W/m2
21:28 15.4 °C 11.2 °C 1011.7 hPa WNW 11.3 km/h 19.3 km/h 76 % 0 mm 5 W/m2
21:33 15.3 °C 11.1 °C 1011.7 hPa West 9.7 km/h 19.3 km/h 76 % 0 mm 0 W/m2
21:38 15.2 °C 11 °C 1011.7 hPa WNW 9.7 km/h 22.5 km/h 76 % 0 mm 0 W/m2
21:43 15.2 °C 11 °C 1012.1 hPa WNW 11.3 km/h 22.5 km/h 76 % 0 mm 0 W/m2
21:48 15.1 °C 10.9 °C 1012.1 hPa West 12.9 km/h 25.7 km/h 76 % 0 mm 0 W/m2
21:53 15.1 °C 11.1 °C 1012.1 hPa West 12.9 km/h 25.7 km/h 77 % 0 mm 0 W/m2
21:59 15 °C 11 °C 1011.7 hPa West 11.3 km/h 20.9 km/h 77 % 0 mm 0 W/m2
22:04 14.9 °C 10.9 °C 1011.7 hPa West 9.7 km/h 20.9 km/h 77 % 0 mm 0 W/m2
22:09 14.9 °C 10.9 °C 1011.7 hPa West 8 km/h 14.5 km/h 77 % 0 mm 0 W/m2
22:14 14.9 °C 10.9 °C 1012.1 hPa WSW 6.4 km/h 14.5 km/h 77 % 0 mm 0 W/m2
22:19 14.9 °C 10.9 °C 1012.1 hPa WSW 3.2 km/h 9.7 km/h 77 % 0 mm 0 W/m2
22:24 14.9 °C 10.9 °C 1012.1 hPa WSW 3.2 km/h 9.7 km/h 77 % 0 mm 0 W/m2
22:29 14.8 °C 11 °C 1012.1 hPa WSW 3.2 km/h 11.3 km/h 78 % 0 mm 0 W/m2
22:30 14.8 °C 11 °C 1011.7 hPa WSW 3.2 km/h 11.3 km/h 78 % 0 mm 0 W/m2
22:35 14.8 °C 11 °C 1012.1 hPa West 4.8 km/h 14.5 km/h 78 % 0 mm 0 W/m2
22:40 14.8 °C 11 °C 1011.7 hPa West 6.4 km/h 14.5 km/h 78 % 0 mm 0 W/m2
22:46 14.8 °C 11 °C 1012.1 hPa West 9.7 km/h 22.5 km/h 78 % 0 mm 0 W/m2
22:51 14.8 °C 11 °C 1012.1 hPa West 12.9 km/h 22.5 km/h 78 % 0 mm 0 W/m2
22:56 14.9 °C 11.1 °C 1012.1 hPa West 12.9 km/h 20.9 km/h 78 % 0 mm 0 W/m2
23:01 14.9 °C 11.1 °C 1012.1 hPa West 12.9 km/h 20.9 km/h 78 % 0 mm 0 W/m2
23:06 14.9 °C 11.1 °C 1012.1 hPa West 11.3 km/h 19.3 km/h 78 % 0 mm 0 W/m2
23:11 14.8 °C 11 °C 1012.1 hPa West 11.3 km/h 19.3 km/h 78 % 0 mm 0 W/m2
23:16 14.8 °C 11 °C 1011.7 hPa West 11.3 km/h 20.9 km/h 78 % 0 mm 0 W/m2
23:21 14.8 °C 11 °C 1011.7 hPa West 11.3 km/h 20.9 km/h 78 % 0 mm 0 W/m2
23:26 14.8 °C 11.2 °C 1011.7 hPa West 9.7 km/h 16.1 km/h 79 % 0 mm 0 W/m2
23:31 14.8 °C 11.2 °C 1011.7 hPa West 6.4 km/h 11.3 km/h 79 % 0 mm 0 W/m2
23:36 14.8 °C 11.2 °C 1011.7 hPa West 6.4 km/h 11.3 km/h 79 % 0 mm 0 W/m2
23:41 14.8 °C 11.2 °C 1011.7 hPa WSW 4.8 km/h 11.3 km/h 79 % 0 mm 0 W/m2
23:46 14.8 °C 11.2 °C 1011.7 hPa WSW 4.8 km/h 11.3 km/h 79 % 0 mm 0 W/m2
23:51 14.8 °C 11.2 °C 1011.7 hPa WSW 6.4 km/h 11.3 km/h 79 % 0 mm 0 W/m2
23:56 14.8 °C 11.4 °C 1011.7 hPa WSW 4.8 km/h 9.7 km/h 80 % 0 mm 0 W/m2
Delerius-Weather
Compliments of Weather Underground - 2.25 mb

Data updates at regular intervals.